sensor_id;sensor_type;location;lat;lon;timestamp;pressure;altitude;pressure_sealevel;temperature;humidity
50434;BME280;36361;38.954;-9.002;2022-08-14T00:00:29;100645.13;;;19.36;87.60
50434;BME280;36361;38.954;-9.002;2022-08-14T00:01:30;100640.75;;;19.40;87.68
50434;BME280;36361;38.954;-9.002;2022-08-14T00:02:31;100636.88;;;19.51;86.93
50434;BME280;36361;38.954;-9.002;2022-08-14T00:03:32;100643.50;;;19.50;86.46
50434;BME280;36361;38.954;-9.002;2022-08-14T00:04:34;100636.06;;;19.40;86.82
50434;BME280;36361;38.954;-9.002;2022-08-14T00:05:42;100638.78;;;19.35;87.02
50434;BME280;36361;38.954;-9.002;2022-08-14T00:06:43;100643.75;;;19.38;86.88
50434;BME280;36361;38.954;-9.002;2022-08-14T00:07:50;100633.28;;;19.45;86.60
50434;BME280;36361;38.954;-9.002;2022-08-14T00:08:51;100630.00;;;19.64;85.38
50434;BME280;36361;38.954;-9.002;2022-08-14T00:09:56;100634.41;;;19.49;85.84
50434;BME280;36361;38.954;-9.002;2022-08-14T00:10:57;100633.59;;;19.59;85.70
50434;BME280;36361;38.954;-9.002;2022-08-14T00:11:58;100630.81;;;19.64;85.33
50434;BME280;36361;38.954;-9.002;2022-08-14T00:12:58;100632.75;;;19.48;86.31
50434;BME280;36361;38.954;-9.002;2022-08-14T00:14:00;100630.78;;;19.44;86.53
50434;BME280;36361;38.954;-9.002;2022-08-14T00:15:13;100631.63;;;19.54;85.57
50434;BME280;36361;38.954;-9.002;2022-08-14T00:16:15;100636.09;;;19.60;85.34
50434;BME280;36361;38.954;-9.002;2022-08-14T00:17:15;100633.59;;;19.59;85.88
50434;BME280;36361;38.954;-9.002;2022-08-14T00:18:20;100633.28;;;19.96;84.27
50434;BME280;36361;38.954;-9.002;2022-08-14T00:19:21;100637.13;;;20.15;83.44
50434;BME280;36361;38.954;-9.002;2022-08-14T00:20:28;100642.34;;;20.22;82.95
50434;BME280;36361;38.954;-9.002;2022-08-14T00:21:29;100639.84;;;20.31;82.70
50434;BME280;36361;38.954;-9.002;2022-08-14T00:22:29;100643.97;;;20.33;82.47
50434;BME280;36361;38.954;-9.002;2022-08-14T00:23:30;100637.06;;;20.36;82.38
50434;BME280;36361;38.954;-9.002;2022-08-14T00:24:31;100642.56;;;20.36;82.18
50434;BME280;36361;38.954;-9.002;2022-08-14T00:25:32;100632.16;;;20.12;82.72
50434;BME280;36361;38.954;-9.002;2022-08-14T00:26:32;100633.25;;;20.11;82.49
50434;BME280;36361;38.954;-9.002;2022-08-14T00:27:33;100631.63;;;20.00;82.80
50434;BME280;36361;38.954;-9.002;2022-08-14T00:28:35;100634.41;;;19.90;83.65
50434;BME280;36361;38.954;-9.002;2022-08-14T00:29:35;100626.69;;;19.77;84.00
50434;BME280;36361;38.954;-9.002;2022-08-14T00:30:39;100630.53;;;19.91;83.89
50434;BME280;36361;38.954;-9.002;2022-08-14T00:31:46;100623.91;;;19.97;83.67
50434;BME280;36361;38.954;-9.002;2022-08-14T00:32:47;100629.41;;;20.12;82.76
50434;BME280;36361;38.954;-9.002;2022-08-14T00:33:48;100622.25;;;19.66;84.13
50434;BME280;36361;38.954;-9.002;2022-08-14T00:34:49;100631.34;;;19.92;83.45
50434;BME280;36361;38.954;-9.002;2022-08-14T00:35:53;100630.28;;;19.67;85.00
50434;BME280;36361;38.954;-9.002;2022-08-14T00:36:54;100627.19;;;19.18;87.65
50434;BME280;36361;38.954;-9.002;2022-08-14T00:37:55;100633.75;;;19.01;89.38
50434;BME280;36361;38.954;-9.002;2022-08-14T00:38:56;100627.69;;;18.89;90.56
50434;BME280;36361;38.954;-9.002;2022-08-14T00:39:57;100634.09;;;19.15;88.99
50434;BME280;36361;38.954;-9.002;2022-08-14T00:41:03;100623.88;;;19.36;87.63
50434;BME280;36361;38.954;-9.002;2022-08-14T00:42:05;100620.31;;;19.41;86.50
50434;BME280;36361;38.954;-9.002;2022-08-14T00:43:06;100629.94;;;19.28;87.02
50434;BME280;36361;38.954;-9.002;2022-08-14T00:44:07;100624.44;;;19.23;87.44
50434;BME280;36361;38.954;-9.002;2022-08-14T00:45:11;100623.34;;;19.39;87.00
50434;BME280;36361;38.954;-9.002;2022-08-14T00:46:13;100621.13;;;19.21;88.17
50434;BME280;36361;38.954;-9.002;2022-08-14T00:47:15;100625.25;;;19.18;88.48
50434;BME280;36361;38.954;-9.002;2022-08-14T00:48:16;100617.28;;;19.22;88.23
50434;BME280;36361;38.954;-9.002;2022-08-14T00:49:18;100620.84;;;19.27;88.32
50434;BME280;36361;38.954;-9.002;2022-08-14T00:50:21;100622.22;;;19.45;87.65
50434;BME280;36361;38.954;-9.002;2022-08-14T00:51:22;100623.06;;;19.46;88.10
50434;BME280;36361;38.954;-9.002;2022-08-14T00:52:24;100622.25;;;19.50;88.45
50434;BME280;36361;38.954;-9.002;2022-08-14T00:53:26;100615.06;;;19.49;88.03
50434;BME280;36361;38.954;-9.002;2022-08-14T00:54:26;100618.38;;;19.46;88.25
50434;BME280;36361;38.954;-9.002;2022-08-14T00:55:27;100623.88;;;19.36;89.14
50434;BME280;36361;38.954;-9.002;2022-08-14T00:56:28;100626.88;;;18.94;91.50
50434;BME280;36361;38.954;-9.002;2022-08-14T00:57:31;100618.94;;;19.33;90.43
50434;BME280;36361;38.954;-9.002;2022-08-14T00:58:33;100618.94;;;19.33;89.89
50434;BME280;36361;38.954;-9.002;2022-08-14T00:59:34;100615.63;;;19.56;89.15
50434;BME280;36361;38.954;-9.002;2022-08-14T01:00:35;100623.38;;;19.65;88.36
50434;BME280;36361;38.954;-9.002;2022-08-14T01:01:37;100619.78;;;19.69;87.81
50434;BME280;36361;38.954;-9.002;2022-08-14T01:02:40;100618.41;;;19.67;87.53
50434;BME280;36361;38.954;-9.002;2022-08-14T01:03:42;100620.06;;;19.57;87.42
50434;BME280;36361;38.954;-9.002;2022-08-14T01:04:45;100612.84;;;19.46;87.71
50434;BME280;36361;38.954;-9.002;2022-08-14T01:05:49;100609.53;;;19.75;86.95
50434;BME280;36361;38.954;-9.002;2022-08-14T01:06:50;100610.94;;;19.77;86.87
50434;BME280;36361;38.954;-9.002;2022-08-14T01:07:53;100606.25;;;19.68;87.68
50434;BME280;36361;38.954;-9.002;2022-08-14T01:08:57;100609.03;;;19.63;87.86
50434;BME280;36361;38.954;-9.002;2022-08-14T01:09:59;100604.03;;;19.65;88.05
50434;BME280;36361;38.954;-9.002;2022-08-14T01:11:05;100609.84;;;19.68;88.10
50434;BME280;36361;38.954;-9.002;2022-08-14T01:12:06;100613.41;;;19.84;87.69
50434;BME280;36361;38.954;-9.002;2022-08-14T01:13:07;100602.38;;;19.74;87.93
50434;BME280;36361;38.954;-9.002;2022-08-14T01:14:08;100608.44;;;19.81;86.82
50434;BME280;36361;38.954;-9.002;2022-08-14T01:15:09;100606.25;;;19.63;87.33
50434;BME280;36361;38.954;-9.002;2022-08-14T01:16:13;100599.63;;;19.48;88.30
50434;BME280;36361;38.954;-9.002;2022-08-14T01:17:14;100599.31;;;19.55;88.21
50434;BME280;36361;38.954;-9.002;2022-08-14T01:18:15;100591.31;;;19.53;87.91
50434;BME280;36361;38.954;-9.002;2022-08-14T01:19:35;100596.88;;;19.64;88.59
50434;BME280;36361;38.954;-9.002;2022-08-14T01:20:56;100589.69;;;19.73;88.67
50434;BME280;36361;38.954;-9.002;2022-08-14T01:22:03;100594.66;;;19.66;90.08
50434;BME280;36361;38.954;-9.002;2022-08-14T01:23:11;100604.56;;;19.82;89.48
50434;BME280;36361;38.954;-9.002;2022-08-14T01:24:16;100597.34;;;20.01;88.83
50434;BME280;36361;38.954;-9.002;2022-08-14T01:25:20;100603.47;;;19.88;88.12
50434;BME280;36361;38.954;-9.002;2022-08-14T01:26:24;100596.25;;;20.02;87.14
50434;BME280;36361;38.954;-9.002;2022-08-14T01:27:25;100594.56;;;20.16;87.40
50434;BME280;36361;38.954;-9.002;2022-08-14T01:28:28;100610.28;;;20.31;87.33
50434;BME280;36361;38.954;-9.002;2022-08-14T01:29:31;100603.63;;;20.32;87.12
50434;BME280;36361;38.954;-9.002;2022-08-14T01:30:38;100604.41;;;20.38;87.06
50434;BME280;36361;38.954;-9.002;2022-08-14T01:31:42;100604.44;;;20.43;86.73
50434;BME280;36361;38.954;-9.002;2022-08-14T01:32:48;100603.34;;;20.44;86.49
50434;BME280;36361;38.954;-9.002;2022-08-14T01:33:51;100607.75;;;20.45;86.44
50434;BME280;36361;38.954;-9.002;2022-08-14T01:34:54;100600.53;;;20.39;86.73
50434;BME280;36361;38.954;-9.002;2022-08-14T01:35:58;100595.03;;;20.44;86.44
50434;BME280;36361;38.954;-9.002;2022-08-14T01:37:02;100588.94;;;20.47;85.96
50434;BME280;36361;38.954;-9.002;2022-08-14T01:38:04;100589.59;;;20.13;87.28
50434;BME280;36361;38.954;-9.002;2022-08-14T01:39:08;100589.59;;;20.13;87.95
50434;BME280;36361;38.954;-9.002;2022-08-14T01:40:10;100592.09;;;20.15;87.89
50434;BME280;36361;38.954;-9.002;2022-08-14T01:41:16;100587.47;;;19.80;89.67
50434;BME280;36361;38.954;-9.002;2022-08-14T01:42:19;100584.63;;;20.15;88.08
50434;BME280;36361;38.954;-9.002;2022-08-14T01:43:20;100585.47;;;20.06;88.22
50434;BME280;36361;38.954;-9.002;2022-08-14T01:44:26;100585.44;;;20.21;87.61
50434;BME280;36361;38.954;-9.002;2022-08-14T01:45:38;100585.41;;;20.31;86.81
50434;BME280;36361;38.954;-9.002;2022-08-14T01:46:40;100581.56;;;20.22;87.47
50434;BME280;36361;38.954;-9.002;2022-08-14T01:47:41;100584.03;;;20.24;87.40
50434;BME280;36361;38.954;-9.002;2022-08-14T01:48:42;100580.13;;;20.35;86.79
50434;BME280;36361;38.954;-9.002;2022-08-14T01:49:44;100587.88;;;20.43;86.32
50434;BME280;36361;38.954;-9.002;2022-08-14T01:50:45;100580.66;;;20.42;86.39
50434;BME280;36361;38.954;-9.002;2022-08-14T01:51:46;100586.75;;;20.34;86.62
50434;BME280;36361;38.954;-9.002;2022-08-14T01:52:47;100579.28;;;20.44;86.14
50434;BME280;36361;38.954;-9.002;2022-08-14T01:53:51;100580.66;;;20.37;86.27
50434;BME280;36361;38.954;-9.002;2022-08-14T01:54:53;100583.19;;;20.33;86.28
50434;BME280;36361;38.954;-9.002;2022-08-14T01:55:56;100579.06;;;20.31;86.25
50434;BME280;36361;38.954;-9.002;2022-08-14T01:56:58;100578.56;;;20.08;86.88
50434;BME280;36361;38.954;-9.002;2022-08-14T01:57:59;100575.78;;;20.13;87.11
50434;BME280;36361;38.954;-9.002;2022-08-14T01:59:01;100578.56;;;20.08;87.54
50434;BME280;36361;38.954;-9.002;2022-08-14T02:00:07;100581.88;;;20.05;87.33
50434;BME280;36361;38.954;-9.002;2022-08-14T02:01:12;100574.97;;;20.08;87.55
50434;BME280;36361;38.954;-9.002;2022-08-14T02:02:14;100576.03;;;20.17;87.25
50434;BME280;36361;38.954;-9.002;2022-08-14T02:03:15;100573.03;;;20.13;87.07
50434;BME280;36361;38.954;-9.002;2022-08-14T02:04:20;100574.41;;;20.11;87.19
50434;BME280;36361;38.954;-9.002;2022-08-14T02:05:23;100566.47;;;19.94;88.14
50434;BME280;36361;38.954;-9.002;2022-08-14T02:06:29;100559.84;;;19.85;88.99
50434;BME280;36361;38.954;-9.002;2022-08-14T02:07:29;100565.91;;;19.87;88.80
50434;BME280;36361;38.954;-9.002;2022-08-14T02:08:31;100560.38;;;19.82;88.87
50434;BME280;36361;38.954;-9.002;2022-08-14T02:09:32;100554.91;;;19.72;89.25
50434;BME280;36361;38.954;-9.002;2022-08-14T02:10:41;100554.91;;;19.51;90.58
50434;BME280;36361;38.954;-9.002;2022-08-14T02:11:42;100553.78;;;19.47;91.09
50434;BME280;36361;38.954;-9.002;2022-08-14T02:12:44;100560.19;;;19.58;90.79
50434;BME280;36361;38.954;-9.002;2022-08-14T02:14:08;100560.44;;;19.56;91.29
50434;BME280;36361;38.954;-9.002;2022-08-14T02:15:08;100550.97;;;19.93;89.83
50434;BME280;36361;38.954;-9.002;2022-08-14T02:16:15;100554.59;;;19.88;89.94
50434;BME280;36361;38.954;-9.002;2022-08-14T02:17:17;100557.09;;;19.80;90.27
50434;BME280;36361;38.954;-9.002;2022-08-14T02:18:22;100543.25;;;19.95;89.91
50434;BME280;36361;38.954;-9.002;2022-08-14T02:19:28;100542.47;;;19.84;89.99
50434;BME280;36361;38.954;-9.002;2022-08-14T02:20:30;100551.81;;;19.94;89.75
50434;BME280;36361;38.954;-9.002;2022-08-14T02:21:34;100551.53;;;19.90;89.82
50434;BME280;36361;38.954;-9.002;2022-08-14T02:22:35;100545.72;;;19.92;89.64
50434;BME280;36361;38.954;-9.002;2022-08-14T02:23:40;100551.75;;;20.09;89.06
50434;BME280;36361;38.954;-9.002;2022-08-14T02:24:48;100549.28;;;20.12;88.67
50434;BME280;36361;38.954;-9.002;2022-08-14T02:25:49;100543.47;;;20.09;88.57
50434;BME280;36361;38.954;-9.002;2022-08-14T02:26:52;100538.75;;;20.09;88.74
50434;BME280;36361;38.954;-9.002;2022-08-14T02:27:53;100539.09;;;20.03;88.85
50434;BME280;36361;38.954;-9.002;2022-08-14T02:28:58;100532.16;;;20.05;88.56
50434;BME280;36361;38.954;-9.002;2022-08-14T02:30:00;100537.66;;;20.10;88.49
50434;BME280;36361;38.954;-9.002;2022-08-14T02:31:01;100530.50;;;20.04;88.17
50434;BME280;36361;38.954;-9.002;2022-08-14T02:32:02;100523.66;;;19.86;89.28
50434;BME280;36361;38.954;-9.002;2022-08-14T02:33:03;100536.59;;;20.01;88.63
50434;BME280;36361;38.954;-9.002;2022-08-14T02:34:07;100536.59;;;20.01;88.57
50434;BME280;36361;38.954;-9.002;2022-08-14T02:35:10;100527.19;;;20.02;88.27
50434;BME280;36361;38.954;-9.002;2022-08-14T02:36:18;100523.38;;;19.83;89.22
50434;BME280;36361;38.954;-9.002;2022-08-14T02:37:18;100528.88;;;19.98;88.71
50434;BME280;36361;38.954;-9.002;2022-08-14T02:38:22;100532.94;;;20.16;87.74
50434;BME280;36361;38.954;-9.002;2022-08-14T02:39:23;100532.09;;;20.21;87.30
50434;BME280;36361;38.954;-9.002;2022-08-14T02:40:31;100526.59;;;20.15;87.40
50434;BME280;36361;38.954;-9.002;2022-08-14T02:41:32;100512.91;;;19.85;88.77
50434;BME280;36361;38.954;-9.002;2022-08-14T02:42:35;100518.72;;;19.73;90.16
50434;BME280;36361;38.954;-9.002;2022-08-14T02:43:36;100517.00;;;20.03;88.73
50434;BME280;36361;38.954;-9.002;2022-08-14T02:44:40;100515.31;;;20.07;88.44
50434;BME280;36361;38.954;-9.002;2022-08-14T02:45:41;100504.53;;;20.00;89.03
50434;BME280;36361;38.954;-9.002;2022-08-14T02:46:42;100504.19;;;20.17;88.08
50434;BME280;36361;38.954;-9.002;2022-08-14T02:47:43;100501.72;;;20.15;87.82
50434;BME280;36361;38.954;-9.002;2022-08-14T02:48:44;100500.09;;;20.09;88.32
50434;BME280;36361;38.954;-9.002;2022-08-14T02:49:45;100499.56;;;20.07;88.37
50434;BME280;36361;38.954;-9.002;2022-08-14T02:50:45;100503.66;;;20.15;88.35
50434;BME280;36361;38.954;-9.002;2022-08-14T02:51:47;100511.66;;;20.16;88.12
50434;BME280;36361;38.954;-9.002;2022-08-14T02:52:48;100496.75;;;20.17;87.99
50434;BME280;36361;38.954;-9.002;2022-08-14T02:53:49;100505.56;;;20.20;88.16
50434;BME280;36361;38.954;-9.002;2022-08-14T02:54:51;100505.84;;;20.23;87.95
50434;BME280;36361;38.954;-9.002;2022-08-14T02:55:51;100505.03;;;20.23;88.02
50434;BME280;36361;38.954;-9.002;2022-08-14T02:56:56;100505.28;;;20.26;87.77
50434;BME280;36361;38.954;-9.002;2022-08-14T02:57:57;100495.56;;;20.29;87.66
50434;BME280;36361;38.954;-9.002;2022-08-14T02:58:58;100506.63;;;20.34;87.51
50434;BME280;36361;38.954;-9.002;2022-08-14T03:00:04;100496.16;;;20.21;88.04
50434;BME280;36361;38.954;-9.002;2022-08-14T03:01:08;100498.66;;;20.22;87.89
50434;BME280;36361;38.954;-9.002;2022-08-14T03:02:09;100490.63;;;20.21;87.96
50434;BME280;36361;38.954;-9.002;2022-08-14T03:03:12;100498.97;;;20.15;88.20
50434;BME280;36361;38.954;-9.002;2022-08-14T03:04:13;100488.44;;;20.23;87.68
50434;BME280;36361;38.954;-9.002;2022-08-14T03:05:14;100497.03;;;20.11;88.44
50434;BME280;36361;38.954;-9.002;2022-08-14T03:06:17;100493.44;;;20.15;88.07
50434;BME280;36361;38.954;-9.002;2022-08-14T03:07:20;100493.94;;;20.28;87.50
50434;BME280;36361;38.954;-9.002;2022-08-14T03:08:20;100491.25;;;20.07;88.44
50434;BME280;36361;38.954;-9.002;2022-08-14T03:09:22;100491.22;;;20.17;87.86
50434;BME280;36361;38.954;-9.002;2022-08-14T03:10:22;100490.69;;;20.10;87.91
50434;BME280;36361;38.954;-9.002;2022-08-14T03:11:23;100491.78;;;20.14;87.82
50434;BME280;36361;38.954;-9.002;2022-08-14T03:12:25;100490.63;;;20.26;87.52
50434;BME280;36361;38.954;-9.002;2022-08-14T03:13:26;100492.03;;;20.23;87.64
50434;BME280;36361;38.954;-9.002;2022-08-14T03:14:27;100492.38;;;20.06;88.02
50434;BME280;36361;38.954;-9.002;2022-08-14T03:15:28;100490.38;;;20.17;87.91
50434;BME280;36361;38.954;-9.002;2022-08-14T03:16:29;100491.25;;;20.07;88.49
50434;BME280;36361;38.954;-9.002;2022-08-14T03:17:35;100497.56;;;20.18;88.14
50434;BME280;36361;38.954;-9.002;2022-08-14T03:18:37;100497.63;;;20.08;88.25
50434;BME280;36361;38.954;-9.002;2022-08-14T03:19:44;100496.16;;;20.26;87.55
50434;BME280;36361;38.954;-9.002;2022-08-14T03:20:45;100498.38;;;20.18;87.40
50434;BME280;36361;38.954;-9.002;2022-08-14T03:21:48;100500.59;;;20.22;87.53
50434;BME280;36361;38.954;-9.002;2022-08-14T03:22:49;100499.75;;;20.26;87.28
50434;BME280;36361;38.954;-9.002;2022-08-14T03:23:53;100502.78;;;20.25;87.03
50434;BME280;36361;38.954;-9.002;2022-08-14T03:25:09;100503.38;;;20.16;87.44
50434;BME280;36361;38.954;-9.002;2022-08-14T03:26:13;100494.50;;;20.20;87.42
50434;BME280;36361;38.954;-9.002;2022-08-14T03:27:15;100512.53;;;20.07;87.97
50434;BME280;36361;38.954;-9.002;2022-08-14T03:28:16;100507.00;;;20.07;88.18
50434;BME280;36361;38.954;-9.002;2022-08-14T03:29:17;100507.03;;;20.02;89.00
50434;BME280;36361;38.954;-9.002;2022-08-14T03:30:22;100511.22;;;19.89;89.28
50434;BME280;36361;38.954;-9.002;2022-08-14T03:31:23;100510.59;;;20.12;88.33
50434;BME280;36361;38.954;-9.002;2022-08-14T03:32:24;100509.97;;;20.26;87.78
50434;BME280;36361;38.954;-9.002;2022-08-14T03:33:26;100503.84;;;20.34;87.15
50434;BME280;36361;38.954;-9.002;2022-08-14T03:34:29;100500.03;;;20.20;88.00
50434;BME280;36361;38.954;-9.002;2022-08-14T03:35:30;100507.31;;;20.05;88.28
50434;BME280;36361;38.954;-9.002;2022-08-14T03:36:31;100501.50;;;20.07;88.35
50434;BME280;36361;38.954;-9.002;2022-08-14T03:37:32;100499.25;;;20.09;88.39
50434;BME280;36361;38.954;-9.002;2022-08-14T03:38:33;100496.75;;;20.17;88.04
50434;BME280;36361;38.954;-9.002;2022-08-14T03:39:34;100496.22;;;20.10;88.51
50434;BME280;36361;38.954;-9.002;2022-08-14T03:40:36;100495.66;;;20.13;88.52
50434;BME280;36361;38.954;-9.002;2022-08-14T03:41:37;100495.09;;;20.11;88.64
50434;BME280;36361;38.954;-9.002;2022-08-14T03:42:38;100495.63;;;20.18;88.18
50434;BME280;36361;38.954;-9.002;2022-08-14T03:43:40;100495.13;;;20.06;88.79
50434;BME280;36361;38.954;-9.002;2022-08-14T03:44:41;100488.75;;;20.16;88.43
50434;BME280;36361;38.954;-9.002;2022-08-14T03:45:43;100495.69;;;20.08;88.53
50434;BME280;36361;38.954;-9.002;2022-08-14T03:46:44;100492.56;;;20.20;88.32
50434;BME280;36361;38.954;-9.002;2022-08-14T03:47:44;100495.09;;;20.16;88.39
50434;BME280;36361;38.954;-9.002;2022-08-14T03:48:45;100491.75;;;20.20;88.34
50434;BME280;36361;38.954;-9.002;2022-08-14T03:49:46;100492.91;;;20.08;88.74
50434;BME280;36361;38.954;-9.002;2022-08-14T03:50:49;100493.97;;;20.23;88.16
50434;BME280;36361;38.954;-9.002;2022-08-14T03:51:52;100492.91;;;20.08;88.74
50434;BME280;36361;38.954;-9.002;2022-08-14T03:52:53;100494.25;;;20.16;88.38
50434;BME280;36361;38.954;-9.002;2022-08-14T03:53:56;100495.56;;;20.29;87.97
50434;BME280;36361;38.954;-9.002;2022-08-14T03:54:57;100492.97;;;19.98;88.67
50434;BME280;36361;38.954;-9.002;2022-08-14T03:55:59;100500.09;;;20.09;88.72
50434;BME280;36361;38.954;-9.002;2022-08-14T03:56:59;100493.50;;;20.05;89.18
50434;BME280;36361;38.954;-9.002;2022-08-14T03:58:01;100494.28;;;20.11;88.81
50434;BME280;36361;38.954;-9.002;2022-08-14T03:59:04;100495.38;;;20.10;88.80
50434;BME280;36361;38.954;-9.002;2022-08-14T04:00:11;100492.84;;;20.24;88.05
50434;BME280;36361;38.954;-9.002;2022-08-14T04:01:17;100492.28;;;20.27;87.79
50434;BME280;36361;38.954;-9.002;2022-08-14T04:02:18;100493.34;;;20.36;87.41
50434;BME280;36361;38.954;-9.002;2022-08-14T04:03:23;100486.16;;;20.30;87.65
50434;BME280;36361;38.954;-9.002;2022-08-14T04:04:25;100497.56;;;20.18;87.92
50434;BME280;36361;38.954;-9.002;2022-08-14T04:05:26;100486.75;;;20.27;87.58
50434;BME280;36361;38.954;-9.002;2022-08-14T04:06:27;100487.56;;;20.32;87.37
50434;BME280;36361;38.954;-9.002;2022-08-14T04:07:28;100490.63;;;20.31;87.50
50434;BME280;36361;38.954;-9.002;2022-08-14T04:08:28;100492.25;;;20.32;87.63
50434;BME280;36361;38.954;-9.002;2022-08-14T04:09:29;100488.44;;;20.17;88.14
50434;BME280;36361;38.954;-9.002;2022-08-14T04:10:33;100481.81;;;20.24;88.01
50434;BME280;36361;38.954;-9.002;2022-08-14T04:11:35;100482.38;;;20.15;88.06
50434;BME280;36361;38.954;-9.002;2022-08-14T04:12:36;100482.97;;;20.12;88.47
50434;BME280;36361;38.954;-9.002;2022-08-14T04:13:39;100482.38;;;20.15;88.45
50434;BME280;36361;38.954;-9.002;2022-08-14T04:14:40;100478.00;;;20.09;88.55
50434;BME280;36361;38.954;-9.002;2022-08-14T04:15:44;100482.75;;;19.99;89.22
50434;BME280;36361;38.954;-9.002;2022-08-14T04:16:45;100484.13;;;19.96;89.46
50434;BME280;36361;38.954;-9.002;2022-08-14T04:17:47;100491.31;;;19.92;89.35
50434;BME280;36361;38.954;-9.002;2022-08-14T04:18:53;100481.28;;;20.11;88.78
50434;BME280;36361;38.954;-9.002;2022-08-14T04:19:54;100484.28;;;20.20;88.29
50434;BME280;36361;38.954;-9.002;2022-08-14T04:20:55;100486.34;;;19.94;89.58
50434;BME280;36361;38.954;-9.002;2022-08-14T04:21:57;100487.97;;;20.05;89.14
50434;BME280;36361;38.954;-9.002;2022-08-14T04:22:58;100489.66;;;19.96;89.64
50434;BME280;36361;38.954;-9.002;2022-08-14T04:24:00;100492.44;;;19.96;89.39
50434;BME280;36361;38.954;-9.002;2022-08-14T04:25:01;100486.84;;;20.01;89.42
50434;BME280;36361;38.954;-9.002;2022-08-14T04:26:03;100486.31;;;20.04;89.22
50434;BME280;36361;38.954;-9.002;2022-08-14T04:27:06;100486.34;;;19.94;89.12
50434;BME280;36361;38.954;-9.002;2022-08-14T04:28:09;100486.94;;;19.81;89.40
50434;BME280;36361;38.954;-9.002;2022-08-14T04:29:11;100489.66;;;19.91;89.78
50434;BME280;36361;38.954;-9.002;2022-08-14T04:30:13;100491.63;;;19.80;90.47
50434;BME280;36361;38.954;-9.002;2022-08-14T04:31:16;100491.34;;;19.87;90.20
50434;BME280;36361;38.954;-9.002;2022-08-14T04:32:18;100486.84;;;20.01;89.53
50434;BME280;36361;38.954;-9.002;2022-08-14T04:33:19;100484.69;;;19.93;89.97
50434;BME280;36361;38.954;-9.002;2022-08-14T04:34:19;100486.91;;;19.91;89.96
50434;BME280;36361;38.954;-9.002;2022-08-14T04:35:20;100478.97;;;19.69;91.19
50434;BME280;36361;38.954;-9.002;2022-08-14T04:36:21;100481.50;;;19.50;91.07
50434;BME280;36361;38.954;-9.002;2022-08-14T04:37:23;100483.72;;;19.33;91.74
50434;BME280;36361;38.954;-9.002;2022-08-14T04:38:42;100474.31;;;19.49;90.94
50434;BME280;36361;38.954;-9.002;2022-08-14T04:40:05;100485.38;;;19.39;91.32
50434;BME280;36361;38.954;-9.002;2022-08-14T04:41:24;100484.59;;;19.03;93.18
50434;BME280;36361;38.954;-9.002;2022-08-14T04:42:44;100486.50;;;19.02;93.31
50434;BME280;36361;38.954;-9.002;2022-08-14T04:44:06;100482.63;;;18.88;93.32
50434;BME280;36361;38.954;-9.002;2022-08-14T04:45:07;100484.00;;;19.01;93.87
50434;BME280;36361;38.954;-9.002;2022-08-14T04:46:17;100481.53;;;18.89;94.22
50434;BME280;36361;38.954;-9.002;2022-08-14T04:47:18;100478.22;;;18.87;94.13
50434;BME280;36361;38.954;-9.002;2022-08-14T04:48:38;100485.94;;;19.06;92.97
50434;BME280;36361;38.954;-9.002;2022-08-14T04:49:38;100486.50;;;19.08;93.08
50434;BME280;36361;38.954;-9.002;2022-08-14T04:50:46;100479.88;;;18.83;94.48
50434;BME280;36361;38.954;-9.002;2022-08-14T04:51:47;100477.09;;;18.83;94.47
50434;BME280;36361;38.954;-9.002;2022-08-14T04:52:48;100478.22;;;18.77;94.82
50434;BME280;36361;38.954;-9.002;2022-08-14T04:53:48;100470.47;;;18.74;94.95
50434;BME280;36361;38.954;-9.002;2022-08-14T04:54:49;100476.00;;;18.99;93.98
50434;BME280;36361;38.954;-9.002;2022-08-14T04:55:53;100478.50;;;18.70;95.04
50434;BME280;36361;38.954;-9.002;2022-08-14T04:57:00;100477.41;;;18.66;95.37
50434;BME280;36361;38.954;-9.002;2022-08-14T04:58:03;100474.38;;;18.98;94.17
50434;BME280;36361;38.954;-9.002;2022-08-14T04:59:08;100474.09;;;18.90;95.42
50434;BME280;36361;38.954;-9.002;2022-08-14T05:00:10;100471.31;;;18.90;96.51
50434;BME280;36361;38.954;-9.002;2022-08-14T05:01:11;100475.75;;;18.96;96.37
50434;BME280;36361;38.954;-9.002;2022-08-14T05:02:14;100473.25;;;19.15;95.68
50434;BME280;36361;38.954;-9.002;2022-08-14T05:03:17;100479.31;;;19.01;96.19
50434;BME280;36361;38.954;-9.002;2022-08-14T05:04:21;100471.06;;;19.22;95.31
50434;BME280;36361;38.954;-9.002;2022-08-14T05:05:23;100475.44;;;19.33;94.34
50434;BME280;36361;38.954;-9.002;2022-08-14T05:06:24;100480.66;;;19.50;93.61
50434;BME280;36361;38.954;-9.002;2022-08-14T05:07:25;100482.59;;;19.59;92.97
50434;BME280;36361;38.954;-9.002;2022-08-14T05:08:27;100487.00;;;19.60;92.87
50434;BME280;36361;38.954;-9.002;2022-08-14T05:09:28;100483.69;;;19.38;93.78
50434;BME280;36361;38.954;-9.002;2022-08-14T05:10:29;100485.06;;;19.51;93.04
50434;BME280;36361;38.954;-9.002;2022-08-14T05:11:29;100482.06;;;19.42;93.44
50434;BME280;36361;38.954;-9.002;2022-08-14T05:12:32;100488.09;;;19.65;92.66
50434;BME280;36361;38.954;-9.002;2022-08-14T05:13:34;100489.19;;;19.64;92.35
50434;BME280;36361;38.954;-9.002;2022-08-14T05:14:36;100476.47;;;19.78;91.71
50434;BME280;36361;38.954;-9.002;2022-08-14T05:15:39;100489.47;;;19.72;91.91
50434;BME280;36361;38.954;-9.002;2022-08-14T05:16:39;100489.13;;;19.89;90.99
50434;BME280;36361;38.954;-9.002;2022-08-14T05:17:41;100491.97;;;19.64;91.80
50434;BME280;36361;38.954;-9.002;2022-08-14T05:18:42;100488.63;;;19.72;91.63
50434;BME280;36361;38.954;-9.002;2022-08-14T05:19:46;100486.41;;;19.79;90.96
50434;BME280;36361;38.954;-9.002;2022-08-14T05:20:52;100493.59;;;19.75;91.57
50434;BME280;36361;38.954;-9.002;2022-08-14T05:21:53;100486.44;;;19.69;91.38
50434;BME280;36361;38.954;-9.002;2022-08-14T05:22:59;100489.75;;;19.71;91.54
50434;BME280;36361;38.954;-9.002;2022-08-14T05:24:01;100483.72;;;19.58;92.29
50434;BME280;36361;38.954;-9.002;2022-08-14T05:25:03;100481.72;;;19.74;91.34